Time;durP1;ratioP1;P1;durP2;ratioP2;P2;SDS_P1;SDS_P2;PMS_P1;PMS_P2;Temp;Humidity;BMP_temperature;BMP_pressure;BME280_temperature;BME280_humidity;BME280_pressure;Samples;Min_cycle;Max_cycle;Signal;HPM_P1;HPM_P2
2022/05/18 00:03:32;;;;;;;7.18;3.15;;;;;;;13.84;88.12;101699.81;10528693;27;20032;-78
2022/05/18 00:08:35;;;;;;;11.38;4.88;;;;;;;13.72;88.16;101698.41;10510339;27;20032;-76
2022/05/18 00:13:36;;;;;;;9.55;3.97;;;;;;;13.69;88.90;101697.38;10479362;27;20488;-75
2022/05/18 00:18:37;;;;;;;5.22;3.88;;;;;;;13.64;89.22;101715.53;10528023;27;20048;-75
2022/05/18 00:23:37;;;;;;;9.95;4.22;;;;;;;13.67;89.75;101718.31;10528910;27;20059;-75
2022/05/18 00:28:38;;;;;;;5.30;3.75;;;;;;;13.74;89.28;101712.53;10526910;27;20028;-75
2022/05/18 00:33:38;;;;;;;6.70;4.63;;;;;;;13.73;88.97;101721.25;10527594;27;20039;-74
2022/05/18 00:38:39;;;;;;;7.13;3.03;;;;;;;13.70;88.71;101720.22;10528791;27;20123;-75
2022/05/18 00:43:42;;;;;;;7.03;3.35;;;;;;;13.63;88.71;101722.53;10526343;27;20170;-75
2022/05/18 00:48:42;;;;;;;5.25;3.30;;;;;;;13.58;88.78;101728.38;10466725;28;20530;-75
2022/05/18 00:54:05;;;;;;;9.75;3.75;;;;;;;13.42;89.32;101725.00;10501755;27;20051;-75
2022/05/18 00:59:09;;;;;;;5.85;3.55;;;;;;;13.33;89.93;101729.75;10525511;27;20044;-74
2022/05/18 01:04:10;;;;;;;7.75;4.32;;;;;;;13.28;90.55;101733.88;10516247;27;20051;-74
2022/05/18 01:09:18;;;;;;;7.70;4.07;;;;;;;13.16;90.68;101727.19;10508403;27;20038;-74
2022/05/18 01:14:26;;;;;;;5.50;3.55;;;;;;;13.08;91.27;101731.16;10538383;27;20588;-75
2022/05/18 01:19:37;;;;;;;8.82;3.65;;;;;;;13.13;92.81;101729.66;10527100;27;20043;-74
2022/05/18 01:24:51;;;;;;;6.17;4.17;;;;;;;13.20;92.80;101728.25;10540952;27;20043;-74
2022/05/18 01:29:52;;;;;;;8.07;4.28;;;;;;;13.24;92.83;101724.03;10509422;27;20048;-75
2022/05/18 01:34:53;;;;;;;6.70;4.67;;;;;;;13.27;92.88;101721.56;10524254;27;20040;-75
2022/05/18 01:39:58;;;;;;;11.63;4.03;;;;;;;13.29;92.34;101730.44;10523941;27;20300;-75
2022/05/18 01:44:58;;;;;;;7.32;3.78;;;;;;;13.14;92.13;101728.84;10523908;27;20496;-74
2022/05/18 01:49:59;;;;;;;8.18;3.83;;;;;;;12.96;92.11;101734.06;10526355;27;20071;-74
2022/05/18 01:54:59;;;;;;;7.13;4.03;;;;;;;12.85;92.49;101729.97;10522580;27;20036;-75
2022/05/18 02:00:00;;;;;;;8.98;4.00;;;;;;;12.81;93.41;101728.91;10523484;27;20499;-74
2022/05/18 02:05:00;;;;;;;7.32;4.95;;;;;;;12.82;93.71;101733.34;10522467;27;20096;-75
2022/05/18 02:10:01;;;;;;;8.23;4.53;;;;;;;12.85;94.16;101741.38;10507171;27;20123;-74
2022/05/18 02:15:03;;;;;;;7.10;4.97;;;;;;;12.81;94.29;101733.28;10532224;27;20097;-74
2022/05/18 02:20:05;;;;;;;8.02;4.90;;;;;;;12.80;94.45;101731.47;10530702;27;20028;-74
2022/05/18 02:25:06;;;;;;;6.30;4.70;;;;;;;12.81;94.66;101728.00;10532261;27;20052;-74
2022/05/18 02:30:07;;;;;;;8.55;4.40;;;;;;;12.73;94.88;101727.59;10531263;27;20032;-75
2022/05/18 02:35:08;;;;;;;8.70;4.95;;;;;;;12.73;95.91;101731.16;10513916;27;20488;-75
2022/05/18 02:40:09;;;;;;;9.02;4.82;;;;;;;12.75;95.97;101734.75;10514136;27;20543;-75
2022/05/18 02:45:10;;;;;;;10.13;5.82;;;;;;;12.73;96.20;101724.97;10514672;27;20028;-75
2022/05/18 02:50:10;;;;;;;9.57;4.78;;;;;;;12.71;95.72;101729.25;10512149;27;20036;-75
2022/05/18 03:00:30;;;;;;;9.00;5.85;;;;;;;12.76;95.86;101719.88;10530773;27;20036;-74
2022/05/18 03:05:30;;;;;;;9.63;5.10;;;;;;;12.74;96.05;101725.06;10527163;27;20060;-75
2022/05/18 03:10:31;;;;;;;11.15;6.22;;;;;;;12.72;96.02;101736.28;10562690;27;20447;-75
2022/05/18 03:15:31;;;;;;;10.07;5.25;;;;;;;12.63;96.29;101737.63;10512860;27;20067;-75
2022/05/18 03:25:51;;;;;;;9.23;4.72;;;;;;;12.38;95.83;101735.41;10528862;27;20040;-75
2022/05/18 03:30:51;;;;;;;7.57;5.10;;;;;;;12.32;96.49;101738.59;10529642;27;20082;-74
2022/05/18 03:35:52;;;;;;;12.32;5.55;;;;;;;12.29;97.52;101754.16;10512149;27;20573;-75
2022/05/18 03:40:52;;;;;;;12.43;6.80;;;;;;;12.26;97.82;101756.63;10509970;27;20036;-76
2022/05/18 03:45:53;;;;;;;10.68;6.38;;;;;;;12.25;97.67;101753.94;10510725;27;20136;-74
2022/05/18 03:50:56;;;;;;;11.23;5.88;;;;;;;12.19;97.38;101765.91;10502103;27;20044;-75
2022/05/18 03:55:56;;;;;;;9.17;5.47;;;;;;;12.19;97.92;101770.22;10526579;27;20036;-74
2022/05/18 04:01:00;;;;;;;10.13;6.82;;;;;;;12.22;98.58;101790.50;10511478;27;20274;-74
2022/05/18 04:06:00;;;;;;;12.38;8.02;;;;;;;12.24;98.78;101786.25;10509385;27;20032;-75
2022/05/18 04:11:01;;;;;;;12.27;7.05;;;;;;;12.26;98.78;101803.88;10510402;27;20039;-75
2022/05/18 04:16:02;;;;;;;17.00;6.55;;;;;;;12.29;98.82;101805.78;10509357;27;20039;-75
2022/05/18 04:21:03;;;;;;;12.35;7.22;;;;;;;12.31;98.84;101809.41;10520264;28;20043;-75
2022/05/18 04:26:03;;;;;;;12.43;7.43;;;;;;;12.36;98.84;101805.31;10533811;27;20127;-76
2022/05/18 04:31:04;;;;;;;10.98;7.47;;;;;;;12.40;98.99;101811.63;10525086;27;20047;-76
2022/05/18 04:36:04;;;;;;;14.55;9.00;;;;;;;12.53;99.55;101828.97;10499742;27;20051;-75
2022/05/18 04:41:05;;;;;;;18.77;8.98;;;;;;;12.79;99.86;101817.22;10530716;27;20036;-74
2022/05/18 04:46:06;;;;;;;15.70;9.77;;;;;;;12.86;99.58;101831.63;10498554;27;20101;-74
2022/05/18 04:51:07;;;;;;;12.50;7.20;;;;;;;12.96;98.62;101831.28;10504781;27;20119;-74
2022/05/18 04:56:08;;;;;;;20.30;8.80;;;;;;;13.05;98.26;101829.16;10524291;27;20028;-74
2022/05/18 05:01:09;;;;;;;11.45;7.63;;;;;;;13.08;97.15;101825.75;10501678;27;20106;-74
2022/05/18 05:06:09;;;;;;;13.88;8.95;;;;;;;13.11;96.22;101846.06;10525662;27;20036;-73
2022/05/18 05:11:10;;;;;;;15.82;8.32;;;;;;;13.30;96.24;101861.06;10522728;27;20163;-75
2022/05/18 05:16:13;;;;;;;12.20;7.10;;;;;;;13.67;96.16;101872.63;10525624;27;20040;-76
2022/05/18 05:21:13;;;;;;;13.57;8.63;;;;;;;14.62;96.97;101873.75;10506629;27;20044;-77
2022/05/18 05:26:14;;;;;;;11.63;5.55;;;;;;;15.74;91.68;101867.28;10534720;27;20069;-76
2022/05/18 05:31:14;;;;;;;6.63;4.78;;;;;;;17.48;81.39;101864.31;10471964;28;20048;-76
2022/05/18 05:36:15;;;;;;;9.25;5.22;;;;;;;18.42;73.87;101863.91;10499658;27;20071;-77
2022/05/18 05:41:16;;;;;;;7.80;4.40;;;;;;;19.18;73.14;101858.22;10541456;27;20042;-76
2022/05/18 05:46:17;;;;;;;8.27;5.07;;;;;;;20.42;66.28;101855.13;10517276;27;20043;-77
2022/05/18 05:51:19;;;;;;;17.48;8.73;;;;;;;20.51;66.02;101859.75;10503278;27;20266;-76
2022/05/18 05:56:20;;;;;;;9.45;4.07;;;;;;;21.20;64.72;101855.00;10523181;27;20044;-75
2022/05/18 06:01:21;;;;;;;5.63;4.28;;;;;;;22.34;62.15;101855.16;10523321;27;20071;-76
2022/05/18 06:06:21;;;;;;;19.43;5.97;;;;;;;22.94;58.21;101854.19;10551567;27;20119;-81
2022/05/18 06:11:22;;;;;;;6.23;3.97;;;;;;;23.59;58.16;101855.81;10515939;27;20064;-79
2022/05/18 06:16:22;;;;;;;11.07;4.57;;;;;;;24.72;52.15;101847.69;10534976;27;20055;-79
2022/05/18 06:21:23;;;;;;;7.63;3.83;;;;;;;25.06;52.41;101850.50;10524805;27;20036;-78
2022/05/18 06:26:25;;;;;;;9.30;3.93;;;;;;;25.74;48.80;101848.84;10522506;27;20063;-77
2022/05/18 06:31:25;;;;;;;9.32;3.80;;;;;;;26.30;49.99;101847.00;10489680;27;20073;-78
2022/05/18 06:36:26;;;;;;;7.65;4.15;;;;;;;26.94;46.25;101853.06;10500436;27;20040;-78
2022/05/18 06:41:26;;;;;;;6.35;3.65;;;;;;;27.40;47.58;101848.31;10515978;27;20093;-77
2022/05/18 06:46:27;;;;;;;;;;;;;;;28.16;41.99;101846.81;10523028;27;20075;-77
2022/05/18 06:51:30;;;;;;;3.70;3.08;;;;;;;28.80;43.85;101850.59;10525452;27;19957;-77
2022/05/18 06:56:32;;;;;;;5.05;3.17;;;;;;;29.84;39.69;101856.22;10521871;27;20044;-77
2022/05/18 07:01:33;;;;;;;9.90;2.92;;;;;;;30.30;35.71;101857.19;10540343;27;20047;-77
2022/05/18 07:06:35;;;;;;;4.93;3.85;;;;;;;30.17;35.80;101854.75;10513226;27;20089;-77
2022/05/18 07:11:36;;;;;;;10.40;8.15;;;;;;;29.62;40.77;101858.38;10525718;27;20048;-77
2022/05/18 07:16:37;;;;;;;25.35;20.42;;;;;;;29.23;39.32;101858.97;10530566;27;20174;-77
2022/05/18 07:21:38;;;;;;;25.15;18.33;;;;;;;30.31;36.22;101858.97;10521940;27;20140;-76
2022/05/18 07:26:39;;;;;;;10.43;7.00;;;;;;;31.67;35.50;101860.53;10527499;27;20048;-76
2022/05/18 07:36:59;;;;;;;7.55;3.60;;;;;;;32.66;31.04;101863.28;10526744;27;20036;-76
2022/05/18 07:41:59;;;;;;;9.77;6.28;;;;;;;30.76;32.40;101871.63;10534929;27;20032;-75
2022/05/18 07:47:00;;;;;;;;;;;;;;;28.13;38.77;101872.84;10549298;27;20200;-76
2022/05/18 07:52:00;;;;;;;6.68;3.85;;;;;;;27.31;40.12;101876.16;10559886;27;19931;-75
2022/05/18 07:57:01;;;;;;;9.13;4.90;;;;;;;27.49;41.99;101883.22;10533781;27;20036;-76
2022/05/18 08:02:01;;;;;;;6.77;3.63;;;;;;;27.62;40.62;101883.13;10539161;27;20038;-75
2022/05/18 08:07:02;;;;;;;5.70;3.33;;;;;;;27.72;40.86;101883.97;10527237;27;20499;-73
2022/05/18 08:17:22;;;;;;;11.27;4.22;;;;;;;29.10;38.27;101885.19;10526917;27;20036;-74
2022/05/18 08:22:22;;;;;;;3.85;3.10;;;;;;;31.32;33.69;101887.50;10522324;27;20475;-74
2022/05/18 08:27:23;;;;;;;6.57;3.67;;;;;;;30.22;34.69;101887.06;10525080;27;20059;-74
2022/05/18 08:32:23;;;;;;;;;;;;;;;30.66;36.86;101884.41;10508916;28;20510;-74
2022/05/18 08:37:24;;;;;;;8.83;5.37;;;;;;;31.63;32.10;101877.78;10531811;27;19920;-75
2022/05/18 08:42:24;;;;;;;6.30;5.07;;;;;;;32.68;30.46;101875.91;10532218;27;20074;-76
2022/05/18 08:47:48;;;;;;;6.07;3.53;;;;;;;33.18;29.28;101886.16;10540123;27;20064;-76
2022/05/18 08:52:55;;;;;;;7.10;2.67;;;;;;;34.21;28.10;101884.53;10504192;28;20115;-75
2022/05/18 08:57:58;;;;;;;4.45;3.05;;;;;;;34.10;28.34;101893.09;10526791;28;20052;-76
2022/05/18 09:03:03;;;;;;;4.03;2.67;;;;;;;33.71;29.52;101890.81;10508880;28;20036;-76
2022/05/18 09:08:12;;;;;;;7.45;2.70;;;;;;;33.23;29.05;101878.75;10507813;28;20495;-76
2022/05/18 09:13:13;;;;;;;12.40;3.38;;;;;;;33.34;29.22;101873.88;10526382;28;20055;-75
2022/05/18 09:18:27;;;;;;;5.75;3.40;;;;;;;33.86;29.29;101881.22;10525150;28;20035;-76
2022/05/18 09:23:33;;;;;;;6.88;3.72;;;;;;;34.95;28.01;101872.75;10524493;28;20036;-75
2022/05/18 09:28:51;;;;;;;6.55;3.83;;;;;;;34.47;27.76;101882.72;10526696;28;20388;-75
2022/05/18 09:34:29;;;;;;;4.63;2.55;;;;;;;33.73;28.22;101877.16;10525017;28;20510;-75
2022/05/18 09:39:32;;;;;;;6.32;3.00;;;;;;;35.06;27.14;101863.31;10525370;28;20047;-76
2022/05/18 09:44:55;;;;;;;4.18;3.40;;;;;;;35.68;27.91;101863.50;10507243;28;20071;-75
2022/05/18 09:49:56;;;;;;;6.22;3.85;;;;;;;35.25;28.71;101869.78;10524571;28;21053;-76
2022/05/18 09:54:58;;;;;;;9.32;4.22;;;;;;;35.37;28.42;101871.09;10507910;28;20067;-76
2022/05/18 10:00:01;;;;;;;5.47;3.70;;;;;;;35.85;26.52;101870.94;10506990;28;20032;-76
2022/05/18 10:10:23;;;;;;;7.15;3.53;;;;;;;34.83;28.05;101868.69;10509834;28;20040;-75
2022/05/18 10:15:24;;;;;;;7.75;4.00;;;;;;;34.65;30.07;101867.56;10524617;28;20039;-75
2022/05/18 10:20:30;;;;;;;9.43;4.07;;;;;;;36.13;25.93;101864.28;10524687;28;20059;-75
2022/05/18 10:25:48;;;;;;;7.68;3.92;;;;;;;36.37;26.70;101861.41;10523647;28;20278;-75
2022/05/18 10:31:01;;;;;;;8.30;3.05;;;;;;;36.21;26.79;101859.38;10523952;28;20097;-76
2022/05/18 10:36:14;;;;;;;5.00;3.35;;;;;;;36.14;26.88;101855.16;10532148;28;20028;-75
2022/05/18 10:41:16;;;;;;;6.15;3.03;;;;;;;36.34;25.87;101847.91;10531244;28;20035;-75
2022/05/18 10:46:27;;;;;;;8.57;3.58;;;;;;;35.85;27.15;101847.31;10530806;28;20032;-75
2022/05/18 10:51:32;;;;;;;;;;;;;;;35.64;29.74;101853.72;10532238;27;20491;-75
2022/05/18 10:56:33;;;;;;;9.45;4.25;;;;;;;35.57;26.21;101840.38;10530783;28;19916;-76
2022/05/18 11:01:38;;;;;;;9.10;4.07;;;;;;;36.08;26.89;101830.94;10530219;28;20494;-78
2022/05/18 11:06:39;;;;;;;6.80;3.80;;;;;;;36.21;25.23;101840.31;10513705;28;20050;-76
2022/05/18 11:11:45;;;;;;;7.18;3.80;;;;;;;36.80;25.61;101831.28;10513727;28;20043;-76
2022/05/18 11:16:46;;;;;;;16.30;4.38;;;;;;;35.51;29.96;101831.56;10530897;28;20055;-77
2022/05/18 11:22:20;;;;;;;5.72;4.03;;;;;;;35.46;26.96;101834.47;10528997;27;20534;-77
2022/05/18 11:27:26;;;;;;;7.03;3.65;;;;;;;35.49;27.46;101830.75;10530934;27;20456;-76
2022/05/18 11:32:45;;;;;;;5.95;3.22;;;;;;;33.53;30.00;101835.31;10540296;27;20044;-75
2022/05/18 11:37:58;;;;;;;6.43;4.53;;;;;;;34.89;29.45;101825.88;10528100;28;20051;-75
2022/05/18 11:43:28;;;;;;;6.38;4.53;;;;;;;35.68;27.46;101831.72;10526873;28;20066;-75
2022/05/18 11:48:51;;;;;;;4.27;3.33;;;;;;;36.56;27.09;101821.47;10514649;28;20480;-76
2022/05/18 11:53:55;;;;;;;4.70;3.17;;;;;;;37.57;25.29;101811.09;10496182;28;20043;-76
2022/05/18 12:04:32;;;;;;;8.50;4.85;;;;;;;37.46;23.98;101811.66;10529807;28;20564;-77
2022/05/18 12:09:45;;;;;;;6.53;3.53;;;;;;;37.23;24.51;101793.72;10527003;28;20066;-76
2022/05/18 12:15:03;;;;;;;7.35;3.17;;;;;;;36.92;26.89;101794.31;10530049;28;20040;-76
2022/05/18 12:20:25;;;;;;;7.88;4.15;;;;;;;37.85;24.66;101785.06;10529011;28;20024;-76
2022/05/18 12:25:26;;;;;;;8.23;3.35;;;;;;;35.22;27.58;101791.03;10529208;28;20032;-76
2022/05/18 12:30:28;;;;;;;5.30;4.07;;;;;;;32.71;32.18;101791.81;10509472;28;20047;-75
2022/05/18 12:35:45;;;;;;;8.60;4.22;;;;;;;31.61;35.99;101798.47;10527330;28;20077;-75
2022/05/18 12:40:55;;;;;;;6.72;3.53;;;;;;;31.63;33.71;101797.47;10526303;28;20036;-75
2022/05/18 12:45:58;;;;;;;7.20;3.53;;;;;;;31.35;34.40;101797.31;10526730;28;20395;-75
2022/05/18 12:51:26;;;;;;;8.77;4.22;;;;;;;32.67;33.97;101791.00;10510230;28;20387;-75
2022/05/18 12:56:36;;;;;;;4.93;3.33;;;;;;;34.33;30.08;101793.59;10526687;28;20372;-75
2022/05/18 13:01:41;;;;;;;7.72;3.42;;;;;;;35.05;28.36;101794.44;10527947;28;20119;-76
2022/05/18 13:06:48;;;;;;;8.60;3.55;;;;;;;33.36;30.63;101801.47;10525537;28;20036;-76
2022/05/18 13:11:53;;;;;;;9.32;3.15;;;;;;;33.65;32.12;101809.59;10484257;28;20032;-75
2022/05/18 13:16:54;;;;;;;7.75;4.50;;;;;;;32.34;31.91;101807.34;10482903;28;20040;-75
2022/05/18 13:22:06;;;;;;;;;;;;;;;32.16;33.27;101793.38;10484676;28;20106;-75
2022/05/18 13:27:35;;;;;;;8.80;3.92;;;;;;;31.64;34.28;101804.66;10483074;28;20317;-75
2022/05/18 13:32:36;;;;;;;6.40;3.55;;;;;;;31.49;35.05;101794.25;10475717;28;20037;-75
2022/05/18 13:37:36;;;;;;;;;;;;;;;31.77;32.62;101786.34;10505903;28;20523;-76
2022/05/18 13:42:37;;;;;;;4.73;3.47;;;;;;;33.33;32.16;101782.59;10525806;28;19965;-76
2022/05/18 13:47:39;;;;;;;;;;;;;;;34.02;30.34;101778.44;10525259;28;20529;-74
2022/05/18 13:52:41;;;;;;;;;;;;;;;34.46;31.21;101775.00;10524542;28;19967;-75
2022/05/18 13:57:43;;;;;;;10.40;3.53;;;;;;;35.44;29.50;101771.06;10523866;28;20401;-74
2022/05/18 14:02:44;;;;;;;6.15;3.35;;;;;;;35.58;28.69;101759.56;10507454;28;20032;-74
2022/05/18 14:07:45;;;;;;;12.43;3.22;;;;;;;35.12;28.73;101766.03;10494345;28;20044;-75
2022/05/18 14:12:47;;;;;;;7.90;3.33;;;;;;;34.28;31.22;101756.66;10532466;27;20127;-74
2022/05/18 14:17:47;;;;;;;3.97;2.97;;;;;;;34.14;30.22;101758.06;10532526;28;20043;-74
2022/05/18 14:22:52;;;;;;;5.47;2.92;;;;;;;34.41;29.41;101757.94;10514228;27;20055;-74
2022/05/18 14:27:54;;;;;;;13.20;9.45;;;;;;;32.87;31.25;101754.28;10534675;27;20047;-74
2022/05/18 14:32:58;;;;;;;7.35;5.22;;;;;;;31.14;35.47;101759.03;10530280;27;20483;-75
2022/05/18 14:38:00;;;;;;;9.25;3.25;;;;;;;29.78;37.23;101765.50;10521674;27;20030;-75
2022/05/18 14:43:01;;;;;;;4.85;3.25;;;;;;;29.16;37.28;101758.44;10523818;27;20044;-76
2022/05/18 14:48:22;;;;;;;10.20;3.37;;;;;;;28.57;39.83;101762.88;10513407;27;20451;-75
2022/05/18 14:53:22;;;;;;;7.55;4.40;;;;;;;28.62;40.25;101756.56;10561817;27;20070;-75
2022/05/18 14:58:25;;;;;;;7.33;4.43;;;;;;;28.97;41.72;101753.34;10529758;27;20032;-75
2022/05/18 15:03:29;;;;;;;6.28;3.35;;;;;;;28.95;40.08;101747.09;10497858;27;20454;-75
2022/05/18 15:08:42;;;;;;;8.20;4.57;;;;;;;29.40;40.92;101743.72;10512805;27;20036;-75
2022/05/18 15:13:53;;;;;;;6.32;4.03;;;;;;;29.15;40.24;101740.50;10529752;27;20040;-75
2022/05/18 15:18:55;;;;;;;9.23;4.80;;;;;;;28.95;42.25;101746.22;10516023;27;20497;-75
2022/05/18 15:24:11;;;;;;;4.72;3.35;;;;;;;28.99;39.84;101740.75;10528073;27;20424;-74
2022/05/18 15:29:36;;;;;;;7.38;2.85;;;;;;;29.35;39.58;101734.78;10544987;27;20064;-76
2022/05/18 15:34:48;;;;;;;7.95;3.35;;;;;;;29.35;40.44;101742.88;10526381;27;20048;-75
2022/05/18 15:39:48;;;;;;;;;;;;;;;29.43;40.56;101743.66;10531827;27;20044;-75
2022/05/18 15:44:49;;;;;;;5.17;2.93;;;;;;;28.90;40.81;101745.41;10512831;27;20356;-74
2022/05/18 15:50:07;;;;;;;6.18;3.60;;;;;;;28.66;41.11;101743.00;10523734;27;20040;-75
2022/05/18 15:55:14;;;;;;;10.15;3.10;;;;;;;29.05;39.96;101738.88;10508460;27;20051;-75
2022/05/18 16:00:16;;;;;;;7.05;3.47;;;;;;;29.33;40.11;101733.03;10513069;27;20062;-75
2022/05/18 16:05:17;;;;;;;7.35;2.92;;;;;;;29.34;40.32;101732.09;10509572;27;20112;-75
2022/05/18 16:10:19;;;;;;;7.50;4.32;;;;;;;29.01;41.67;101733.53;10515090;27;20122;-75
2022/05/18 16:15:20;;;;;;;6.80;3.67;;;;;;;28.61;42.40;101730.53;10523929;27;20115;-75
2022/05/18 16:20:21;;;;;;;9.57;4.38;;;;;;;28.51;42.97;101735.13;10516630;27;20454;-74
2022/05/18 16:25:28;;;;;;;7.72;3.75;;;;;;;28.27;43.93;101734.56;10499769;27;20036;-75
2022/05/18 16:30:29;;;;;;;7.38;4.10;;;;;;;27.98;44.89;101735.75;10505482;27;20403;-74
2022/05/18 16:35:30;;;;;;;7.65;6.10;;;;;;;27.86;48.70;101731.44;10520159;27;20111;-74
2022/05/18 16:40:31;;;;;;;6.93;4.35;;;;;;;27.58;47.80;101728.13;10526851;27;20040;-74
2022/05/18 16:45:31;;;;;;;9.90;4.90;;;;;;;27.29;48.17;101735.53;10481653;28;20445;-75
2022/05/18 16:50:32;;;;;;;4.83;3.20;;;;;;;26.95;45.25;101725.94;10517364;27;20511;-75
2022/05/18 16:55:32;;;;;;;6.33;4.53;;;;;;;26.88;49.31;101717.94;10523052;27;20067;-74
2022/05/18 17:00:33;;;;;;;15.90;5.33;;;;;;;26.76;48.91;101721.56;10523676;27;20073;-75
2022/05/18 17:10:52;;;;;;;5.15;4.28;;;;;;;26.93;45.49;101714.31;10488034;27;20052;-76
2022/05/18 17:15:53;;;;;;;7.57;3.63;;;;;;;26.85;45.90;101713.47;10544219;27;20490;-76
2022/05/18 17:20:53;;;;;;;6.00;3.53;;;;;;;26.94;46.91;101709.84;10566660;27;20088;-76
2022/05/18 17:25:54;;;;;;;7.03;3.57;;;;;;;27.03;46.81;101703.50;10566851;27;20032;-76
2022/05/18 17:30:54;;;;;;;22.77;6.70;;;;;;;26.95;47.24;101709.81;10567730;27;20036;-76
2022/05/18 17:35:55;;;;;;;3.67;3.03;;;;;;;26.82;46.39;101702.72;10566319;27;20100;-76
2022/05/18 17:41:01;;;;;;;8.20;3.05;;;;;;;26.71;47.25;101708.19;10566230;27;20032;-76
2022/05/18 17:46:01;;;;;;;5.90;3.97;;;;;;;26.40;48.11;101703.00;10566985;27;20035;-74
2022/05/18 17:51:02;;;;;;;7.73;3.87;;;;;;;25.99;49.64;101704.03;10565922;27;20056;-75
2022/05/18 17:56:03;;;;;;;8.02;4.00;;;;;;;25.63;50.14;101701.41;10540766;27;20055;-75
2022/05/18 18:01:03;;;;;;;12.00;4.50;;;;;;;25.31;51.04;101700.56;10524101;27;20066;-75
2022/05/18 18:06:04;;;;;;;9.03;5.37;;;;;;;24.94;52.86;101705.91;10505944;27;20105;-74
2022/05/18 18:11:04;;;;;;;6.20;4.43;;;;;;;24.54;54.39;101705.78;10523099;27;20032;-74
2022/05/18 18:16:05;;;;;;;6.40;5.13;;;;;;;24.05;55.69;101702.91;10517515;27;20048;-74
2022/05/18 18:21:06;;;;;;;9.17;4.07;;;;;;;23.68;58.55;101696.44;10543359;27;20050;-73
2022/05/18 18:26:07;;;;;;;6.53;4.27;;;;;;;23.35;60.13;101698.88;10506464;27;20514;-74
2022/05/18 18:31:08;;;;;;;11.25;3.63;;;;;;;23.04;60.94;101701.25;10498594;27;20036;-74
2022/05/18 18:36:16;;;;;;;5.33;4.47;;;;;;;22.77;61.72;101697.44;10483009;28;20441;-74
2022/05/18 18:41:16;;;;;;;5.30;3.28;;;;;;;22.55;63.00;101704.34;10537199;27;20380;-74
2022/05/18 18:46:32;;;;;;;7.47;4.00;;;;;;;22.32;65.19;101704.94;10522492;27;20039;-73
2022/05/18 18:56:53;;;;;;;10.88;4.13;;;;;;;21.80;66.82;101703.38;10528677;27;20407;-73
2022/05/18 19:01:56;;;;;;;11.07;4.30;;;;;;;21.57;66.76;101700.31;10513427;27;20036;-74
2022/05/18 19:06:58;;;;;;;5.20;4.13;;;;;;;21.37;67.32;101700.88;10512615;27;20040;-74
2022/05/18 19:11:58;;;;;;;8.48;4.43;;;;;;;21.10;68.57;101696.03;10511393;27;20424;-75
2022/05/18 19:16:59;;;;;;;5.82;3.83;;;;;;;20.81;70.19;101702.59;10511342;27;20123;-75
2022/05/18 19:22:00;;;;;;;6.35;4.47;;;;;;;20.53;70.81;101707.34;10527334;27;20119;-76
2022/05/18 19:27:00;;;;;;;7.82;4.00;;;;;;;20.35;71.29;101705.25;10527095;27;20526;-76
2022/05/18 19:32:01;;;;;;;5.88;4.40;;;;;;;20.18;71.56;101701.34;10528382;27;20066;-75
2022/05/18 19:37:01;;;;;;;8.52;4.57;;;;;;;20.03;72.92;101707.19;10473189;28;20063;-75
2022/05/18 19:42:03;;;;;;;12.63;6.88;;;;;;;19.92;73.33;101710.50;10486485;28;20075;-80
2022/05/18 19:47:03;;;;;;;13.55;5.40;;;;;;;19.72;74.16;101712.69;10524872;27;20044;-75
2022/05/18 19:52:04;;;;;;;11.70;5.43;;;;;;;19.48;75.99;101713.91;10530027;27;20514;-75
2022/05/18 19:57:05;;;;;;;8.30;4.65;;;;;;;19.44;75.62;101708.47;10525650;27;20157;-74
2022/05/18 20:02:06;;;;;;;7.38;4.85;;;;;;;19.35;75.68;101706.50;10534183;27;20066;-74
2022/05/18 20:07:08;;;;;;;7.15;5.50;;;;;;;19.19;76.70;101715.81;10528396;27;20066;-74
2022/05/18 20:12:10;;;;;;;9.38;5.78;;;;;;;19.10;77.06;101708.53;10523486;27;20036;-74
2022/05/18 20:17:11;;;;;;;8.90;5.40;;;;;;;18.99;77.54;101699.41;10509595;27;20489;-74
2022/05/18 20:22:12;;;;;;;7.13;5.35;;;;;;;18.83;77.47;101698.97;10504496;27;20047;-74
2022/05/18 20:27:13;;;;;;;9.85;5.78;;;;;;;18.70;78.71;101699.47;10502530;28;20032;-75
2022/05/18 20:32:13;;;;;;;12.23;6.13;;;;;;;18.62;78.67;101704.56;10506705;27;20035;-75
2022/05/18 20:37:17;;;;;;;7.60;5.30;;;;;;;18.53;80.11;101694.59;10520734;27;20043;-74
2022/05/18 20:42:24;;;;;;;8.85;6.75;;;;;;;18.45;81.74;101698.81;10526434;27;20032;-74
2022/05/18 20:47:26;;;;;;;11.18;6.03;;;;;;;18.54;81.02;101700.78;10501371;28;20044;-74
2022/05/18 20:52:27;;;;;;;10.10;5.35;;;;;;;18.59;80.74;101697.44;10490292;27;20108;-73
2022/05/18 20:57:27;;;;;;;13.30;7.22;;;;;;;18.65;80.49;101694.03;10508713;27;20491;-74
2022/05/18 21:02:28;;;;;;;10.80;6.03;;;;;;;18.66;80.01;101694.94;10493140;27;20436;-74
2022/05/18 21:07:28;;;;;;;13.50;7.45;;;;;;;18.63;80.72;101698.41;10525113;27;20131;-75
2022/05/18 21:12:29;;;;;;;11.35;7.10;;;;;;;18.59;81.42;101704.47;10524464;27;20400;-74
2022/05/18 21:17:29;;;;;;;11.00;7.22;;;;;;;18.57;81.05;101716.78;10518556;27;20047;-73
2022/05/18 21:22:30;;;;;;;14.10;6.53;;;;;;;18.54;81.15;101709.66;10506682;27;20048;-74
2022/05/18 21:27:30;;;;;;;8.18;5.20;;;;;;;18.42;81.02;101707.53;10525128;27;20035;-73
2022/05/18 21:32:37;;;;;;;9.43;6.38;;;;;;;18.29;81.23;101703.66;10524130;27;20543;-74
2022/05/18 21:37:37;;;;;;;16.17;6.57;;;;;;;18.24;81.92;101697.31;10524188;27;20032;-73
2022/05/18 21:42:38;;;;;;;9.88;7.93;;;;;;;18.13;81.86;101698.75;10526556;27;20032;-73
2022/05/18 21:47:38;;;;;;;7.82;7.03;;;;;;;17.96;83.37;101692.91;10507337;27;20055;-73
2022/05/18 21:52:39;;;;;;;13.15;6.13;;;;;;;17.83;83.44;101686.34;10526099;27;20060;-73
2022/05/18 21:57:51;;;;;;;12.00;7.38;;;;;;;17.66;83.45;101681.44;10526089;27;20024;-74
2022/05/18 22:02:51;;;;;;;10.02;7.50;;;;;;;17.56;84.04;101677.56;10524923;27;20052;-74
2022/05/18 22:07:52;;;;;;;17.05;9.02;;;;;;;17.48;84.18;101675.56;10524162;27;20108;-73
2022/05/18 22:12:53;;;;;;;14.15;8.75;;;;;;;17.39;84.57;101676.13;10522363;27;20040;-74
2022/05/18 22:17:53;;;;;;;9.10;7.30;;;;;;;17.31;85.18;101658.25;10526290;27;20036;-74
2022/05/18 22:22:54;;;;;;;13.25;9.60;;;;;;;17.22;85.73;101657.09;10555604;27;20067;-74
2022/05/18 22:27:54;;;;;;;10.30;8.40;;;;;;;17.08;85.84;101651.31;10527874;27;20063;-75
2022/05/18 22:32:55;;;;;;;10.88;7.82;;;;;;;17.03;86.93;101648.53;10513961;27;20126;-75
2022/05/18 22:37:55;;;;;;;13.45;9.25;;;;;;;16.93;87.06;101643.75;10514653;27;20528;-74
2022/05/18 22:42:57;;;;;;;15.98;11.55;;;;;;;16.78;87.09;101641.47;10529232;27;20056;-75
2022/05/18 22:48:05;;;;;;;13.60;10.85;;;;;;;16.63;87.34;101641.84;10515608;27;20040;-75
2022/05/18 22:53:06;;;;;;;18.80;11.07;;;;;;;16.53;87.97;101644.16;10513856;27;20032;-74
2022/05/18 22:58:07;;;;;;;12.60;8.52;;;;;;;16.39;88.14;101634.84;10512772;27;20040;-74
2022/05/18 23:03:08;;;;;;;16.95;13.35;;;;;;;16.37;89.62;101629.50;10531908;27;20036;-74
2022/05/18 23:08:09;;;;;;;21.57;16.03;;;;;;;16.40;90.21;101626.06;10513490;27;20036;-74
2022/05/18 23:13:10;;;;;;;19.92;15.02;;;;;;;16.32;90.14;101611.69;10529472;27;20042;-74
2022/05/18 23:18:10;;;;;;;17.70;14.10;;;;;;;16.27;90.29;101614.16;10529981;27;20032;-74
2022/05/18 23:28:30;;;;;;;19.02;16.13;;;;;;;16.28;91.00;101605.38;10528563;27;20064;-74
2022/05/18 23:33:31;;;;;;;27.95;17.80;;;;;;;16.20;90.87;101598.94;10528159;27;20124;-74
2022/05/18 23:38:32;;;;;;;26.60;19.23;;;;;;;16.15;91.63;101593.50;10529694;27;20127;-74
2022/05/18 23:43:32;;;;;;;37.72;22.65;;;;;;;16.07;91.88;101584.41;10527800;27;20044;-75
2022/05/18 23:48:33;;;;;;;37.22;22.25;;;;;;;16.00;92.00;101578.91;10529608;27;20116;-75
2022/05/18 23:53:34;;;;;;;23.75;17.73;;;;;;;15.91;92.31;101567.09;10561130;27;20040;-74
2022/05/18 23:58:40;;;;;;;26.25;17.65;;;;;;;15.85;92.80;101568.63;10512618;27;20115;-74
